createdAt,value
2019-03-19T00:00:25.743Z,96872.00
2019-03-19T00:05:28.315Z,96880.00
2019-03-19T00:10:30.883Z,96882.00
2019-03-19T00:15:33.431Z,96875.00
2019-03-19T00:20:36.035Z,96877.00
2019-03-19T00:25:38.627Z,96878.00
2019-03-19T00:30:41.511Z,96891.00
2019-03-19T00:35:44.758Z,96884.00
2019-03-19T00:40:47.267Z,96868.00
2019-03-19T00:45:49.835Z,96862.00
2019-03-19T00:50:52.386Z,96868.00
2019-03-19T00:55:54.873Z,96868.00
2019-03-19T01:00:58.498Z,96867.00
2019-03-19T01:06:01.075Z,96858.00
2019-03-19T01:11:03.692Z,96870.00
2019-03-19T01:16:06.265Z,96868.00
2019-03-19T01:21:08.823Z,96869.00
2019-03-19T01:26:11.438Z,96866.00
2019-03-19T01:31:14.879Z,96866.00
2019-03-19T01:36:17.728Z,96865.00
2019-03-19T01:41:20.366Z,96865.00
2019-03-19T01:46:22.830Z,96860.00
2019-03-19T01:51:25.347Z,96860.00
2019-03-19T01:56:27.898Z,96865.00
2019-03-19T02:01:31.707Z,96873.00
2019-03-19T02:06:34.195Z,96875.00
2019-03-19T02:11:38.387Z,96880.00
2019-03-19T02:16:40.947Z,96887.00
2019-03-19T02:21:43.355Z,96892.00
2019-03-19T02:26:45.883Z,96886.00
2019-03-19T02:31:48.816Z,96897.00
2019-03-19T02:36:51.285Z,96891.00
2019-03-19T02:41:53.973Z,96904.00
2019-03-19T02:46:56.466Z,96900.00
2019-03-19T02:51:58.924Z,96918.00
2019-03-19T02:57:01.678Z,96909.00
2019-03-19T03:02:04.396Z,96860.00
2019-03-19T03:07:06.891Z,96912.00
2019-03-19T03:12:09.510Z,96917.00
2019-03-19T03:17:12.095Z,96926.00
2019-03-19T03:22:14.675Z,96932.00
2019-03-19T03:27:17.160Z,96937.00
2019-03-19T03:32:19.666Z,96937.00
2019-03-19T03:37:22.526Z,96941.00
2019-03-19T03:42:25.254Z,96941.00
2019-03-19T03:47:28.506Z,96945.00
2019-03-19T03:52:30.902Z,96942.00
2019-03-19T03:57:33.428Z,96936.00
2019-03-19T04:02:36.037Z,96943.00
2019-03-19T04:07:38.548Z,96948.00
2019-03-19T04:12:41.247Z,96955.00
2019-03-19T04:17:43.936Z,96956.00
2019-03-19T04:22:46.511Z,96969.00
2019-03-19T04:27:49.064Z,96969.00
2019-03-19T04:32:51.552Z,96975.00
2019-03-19T04:37:54.354Z,96974.00
2019-03-19T04:42:57.035Z,96976.00
2019-03-19T04:48:00.732Z,96972.00
2019-03-19T04:53:03.240Z,96986.00
2019-03-19T04:58:05.914Z,96996.00
2019-03-19T05:03:08.472Z,96987.00
2019-03-19T05:08:12.272Z,96999.00
2019-03-19T05:13:15.055Z,97002.00
2019-03-19T05:18:18.612Z,96999.00
2019-03-19T05:23:21.241Z,97045.00
2019-03-19T05:28:23.973Z,97013.00
2019-03-19T05:33:26.495Z,97023.00
2019-03-19T05:38:28.996Z,97012.00
2019-03-19T05:43:31.603Z,97021.00
2019-03-19T05:48:34.268Z,97031.00
2019-03-19T05:53:37.252Z,97042.00
2019-03-19T05:58:39.765Z,97045.00
2019-03-19T06:03:42.263Z,97042.00
2019-03-19T06:08:44.745Z,97044.00
2019-03-19T06:13:47.164Z,97055.00
2019-03-19T06:18:49.837Z,97062.00
2019-03-19T06:23:52.479Z,97078.00
2019-03-19T06:28:54.963Z,97072.00
2019-03-19T06:33:57.571Z,97079.00
2019-03-19T06:39:00.058Z,97078.00
2019-03-19T06:44:02.460Z,97084.00
2019-03-19T06:49:05.151Z,97091.00
2019-03-19T06:54:08.287Z,97097.00
2019-03-19T06:59:10.804Z,97085.00
2019-03-19T07:04:13.319Z,97096.00
2019-03-19T07:09:16.116Z,97103.00
2019-03-19T07:14:18.907Z,97110.00
2019-03-19T07:19:21.625Z,97119.00
2019-03-19T07:24:25.197Z,97131.00
2019-03-19T07:29:27.820Z,97143.00
2019-03-19T07:34:30.237Z,97141.00
2019-03-19T07:39:33.237Z,97147.00
2019-03-19T07:44:35.695Z,97149.00
2019-03-19T07:49:38.383Z,97150.00
2019-03-19T07:54:40.923Z,97168.00
2019-03-19T07:59:43.475Z,97158.00
2019-03-19T08:04:45.845Z,97171.00
2019-03-19T08:09:48.812Z,97166.00
2019-03-19T08:14:52.351Z,97180.00
2019-03-19T08:19:54.778Z,97173.00
2019-03-19T08:24:58.380Z,97172.00
2019-03-19T08:30:01.037Z,97191.00
2019-03-19T08:35:05.510Z,97181.00
2019-03-19T08:40:09.048Z,97183.00
2019-03-19T08:45:12.228Z,97178.00
2019-03-19T08:50:15.281Z,97184.00
2019-03-19T08:55:19.242Z,97199.00
2019-03-19T09:00:21.607Z,97192.00
2019-03-19T09:05:32.229Z,97196.00
2019-03-19T09:10:34.699Z,97193.00
2019-03-19T09:15:38.456Z,97206.00
2019-03-19T09:20:42.012Z,97209.00
2019-03-19T09:25:44.694Z,97216.00
2019-03-19T09:30:47.141Z,97217.00
2019-03-19T09:35:49.634Z,97225.00
2019-03-19T09:40:52.059Z,97222.00
2019-03-19T09:45:54.964Z,97224.00
2019-03-19T09:50:57.371Z,97230.00
2019-03-19T09:56:00.236Z,97225.00
2019-03-19T10:01:02.764Z,97225.00
2019-03-19T10:06:14.022Z,97236.00
2019-03-19T10:11:10.360Z,97225.00
2019-03-19T10:16:13.291Z,97214.00
2019-03-19T10:21:16.051Z,97226.00
2019-03-19T10:26:20.119Z,97135.00
2019-03-19T10:31:22.768Z,97242.00
2019-03-19T10:36:25.204Z,97244.00
2019-03-19T10:41:40.968Z,97247.00
2019-03-19T10:46:43.691Z,97247.00
2019-03-19T10:51:46.430Z,97258.00
2019-03-19T10:56:50.704Z,97262.00
2019-03-19T11:01:54.105Z,97259.00
2019-03-19T11:06:56.616Z,97261.00
2019-03-19T11:12:00.201Z,97264.00
2019-03-19T11:17:02.560Z,97257.00
2019-03-19T11:22:04.961Z,97256.00
2019-03-19T11:27:11.082Z,97256.00
2019-03-19T11:32:14.207Z,97264.00
2019-03-19T11:37:16.733Z,97259.00
2019-03-19T11:42:19.124Z,97262.00
2019-03-19T11:47:21.616Z,97246.00
2019-03-19T11:52:24.613Z,97254.00
2019-03-19T11:57:27.423Z,97248.00
2019-03-19T12:02:30.984Z,97248.00
2019-03-19T12:07:33.501Z,97244.00
2019-03-19T12:12:35.913Z,97252.00
2019-03-19T12:17:38.584Z,97261.00
2019-03-19T12:22:40.912Z,97258.00
2019-03-19T12:27:43.538Z,97256.00
2019-03-19T12:32:45.961Z,97249.00
2019-03-19T12:37:48.453Z,97252.00
2019-03-19T12:42:50.897Z,97249.00
2019-03-19T12:47:53.288Z,97244.00
2019-03-19T12:52:56.491Z,97246.00
2019-03-19T12:58:01.343Z,97241.00
2019-03-19T13:03:06.050Z,97248.00
2019-03-19T13:08:09.510Z,97253.00
2019-03-19T13:13:12.219Z,97245.00
2019-03-19T13:18:14.780Z,97244.00
2019-03-19T13:23:17.140Z,97245.00
2019-03-19T13:28:19.495Z,97253.00
2019-03-19T13:33:22.904Z,97257.00
2019-03-19T13:38:25.354Z,97257.00
2019-03-19T13:43:28.189Z,97261.00
2019-03-19T13:48:30.880Z,97265.00
2019-03-19T13:53:34.771Z,97259.00
2019-03-19T13:58:37.296Z,97258.00
2019-03-19T14:03:40.680Z,97262.00
2019-03-19T14:08:44.353Z,97255.00
2019-03-19T14:13:46.844Z,97248.00
2019-03-19T14:18:49.315Z,97256.00
2019-03-19T14:23:52.091Z,97253.00
2019-03-19T14:28:54.491Z,97264.00
2019-03-19T14:33:56.883Z,97269.00
2019-03-19T14:38:59.743Z,97266.00
2019-03-19T14:44:02.173Z,97268.00
2019-03-19T14:49:04.602Z,97274.00
2019-03-19T14:54:10.516Z,97278.00
2019-03-19T14:59:12.715Z,97277.00
2019-03-19T15:04:14.976Z,97298.00
2019-03-19T15:09:17.532Z,97295.00
2019-03-19T15:14:20.216Z,97293.00
2019-03-19T15:19:22.769Z,97295.00
2019-03-19T15:24:25.242Z,97298.00
2019-03-19T15:29:29.220Z,97300.00
2019-03-19T15:34:32.731Z,97303.00
2019-03-19T15:39:35.592Z,97304.00
2019-03-19T15:44:37.969Z,97304.00
2019-03-19T15:49:40.646Z,97312.00
2019-03-19T15:54:42.994Z,97324.00
2019-03-19T15:59:45.870Z,97328.00
2019-03-19T16:04:48.301Z,97330.00
2019-03-19T16:09:51.087Z,97335.00
2019-03-19T16:14:53.495Z,97336.00
2019-03-19T16:19:56.315Z,97337.00
2019-03-19T16:24:58.778Z,97340.00
2019-03-19T16:30:01.162Z,97349.00
2019-03-19T16:35:04.400Z,97353.00
2019-03-19T16:40:11.812Z,97357.00
2019-03-19T16:45:17.533Z,97358.00
2019-03-19T16:50:19.506Z,97369.00
2019-03-19T16:55:27.027Z,97376.00
2019-03-19T17:00:29.915Z,97381.00
2019-03-19T17:05:33.751Z,97389.00
2019-03-19T17:10:36.454Z,97387.00
2019-03-19T17:15:39.678Z,97401.00
2019-03-19T17:20:42.211Z,97414.00
2019-03-19T17:25:45.180Z,97419.00
2019-03-19T17:30:47.652Z,97421.00
2019-03-19T17:35:50.108Z,97437.00
2019-03-19T17:40:52.971Z,97441.00
2019-03-19T17:45:55.383Z,97455.00
2019-03-19T17:50:57.861Z,97449.00
2019-03-19T17:56:00.339Z,97452.00
2019-03-19T18:01:02.725Z,97455.00
2019-03-19T18:06:05.132Z,97467.00
2019-03-19T18:11:09.257Z,97472.00
2019-03-19T18:16:12.215Z,97471.00
2019-03-19T18:21:15.721Z,97473.00
2019-03-19T18:26:18.170Z,97484.00
2019-03-19T18:31:25.815Z,97481.00
2019-03-19T18:36:33.370Z,97491.00
2019-03-19T18:41:37.576Z,97494.00
2019-03-19T18:46:40.233Z,97500.00
2019-03-19T18:51:42.771Z,97497.00
2019-03-19T18:56:45.500Z,97511.00
2019-03-19T19:01:48.407Z,97522.00
2019-03-19T19:06:51.907Z,97527.00
2019-03-19T19:11:55.247Z,97524.00
2019-03-19T19:16:58.619Z,97533.00
2019-03-19T19:22:01.242Z,97543.00
2019-03-19T19:27:04.021Z,97535.00
2019-03-19T19:32:06.373Z,97540.00
2019-03-19T19:37:08.894Z,97545.00
2019-03-19T19:42:11.912Z,97549.00
2019-03-19T19:47:15.012Z,97556.00
2019-03-19T19:52:17.940Z,97555.00
2019-03-19T19:57:21.183Z,97562.00
2019-03-19T20:02:23.767Z,97565.00
2019-03-19T20:07:26.184Z,97564.00
2019-03-19T20:12:30.193Z,97562.00
2019-03-19T20:17:32.698Z,97562.00
2019-03-19T20:22:35.691Z,97576.00
2019-03-19T20:27:39.096Z,97573.00
2019-03-19T20:32:41.801Z,97572.00
2019-03-19T20:37:44.954Z,97575.00
2019-03-19T20:42:47.904Z,97575.00
2019-03-19T20:47:50.408Z,97590.00
2019-03-19T20:52:53.089Z,97594.00
2019-03-19T20:57:57.560Z,97596.00
2019-03-19T21:02:59.888Z,97607.00
2019-03-19T21:08:04.046Z,97606.00
2019-03-19T21:13:06.477Z,97606.00
2019-03-19T21:18:08.940Z,97613.00
2019-03-19T21:23:11.556Z,97627.00
2019-03-19T21:28:15.241Z,97625.00
2019-03-19T21:33:17.684Z,97618.00
2019-03-19T21:38:20.524Z,97618.00
2019-03-19T21:43:22.952Z,97621.00
2019-03-19T21:48:25.910Z,97625.00
2019-03-19T21:53:28.699Z,97627.00
2019-03-19T21:58:31.331Z,97633.00
2019-03-19T22:03:33.703Z,97626.00
2019-03-19T22:08:36.696Z,97634.00
2019-03-19T22:13:41.252Z,97641.00
2019-03-19T22:18:43.885Z,97632.00
2019-03-19T22:23:46.432Z,97636.00
2019-03-19T22:28:50.072Z,97644.00
2019-03-19T22:33:52.628Z,97649.00
2019-03-19T22:38:55.772Z,97636.00
2019-03-19T22:43:58.923Z,97650.00
2019-03-19T22:49:01.550Z,97652.00
2019-03-19T22:54:04.446Z,97656.00
2019-03-19T22:59:06.938Z,97646.00
2019-03-19T23:04:09.636Z,97657.00
2019-03-19T23:09:12.140Z,97663.00
2019-03-19T23:14:14.868Z,97667.00
2019-03-19T23:19:17.371Z,97672.00
2019-03-19T23:24:20.524Z,97666.00
2019-03-19T23:29:23.743Z,97677.00
2019-03-19T23:34:26.802Z,97680.00
2019-03-19T23:39:29.481Z,97689.00
2019-03-19T23:44:31.928Z,97691.00
2019-03-19T23:49:34.348Z,97690.00
2019-03-19T23:54:37.282Z,97685.00
2019-03-19T23:59:41.514Z,97695.00
